HUAL Seoul — LADO6 — position and weather

sailwx.info

Track history (hours):
 
Tides and Currents Weather Stations Pressure Air Temp Water Temp Dewpoint Dewpoint Depression Visibility Wind Speed Wind Dir Waves Ship Positions

HUAL Seoul

Last reported at 2016-Dec-08 05:16 UTC. Time now 2016-Dec-09 05:54 UTC.
Position N 40°25' W 073°37'.

Type: Cargo ship. MMSI: 257496000.

Date/timePositionNaut miles runAvg speedWind from/ knotsBaromVisibWave heightAir tempDewpointWater temp
2016-Dec-08 05:16N 40°25' W 073°37'6 8.8
2016-Dec-08 04:33N 40°26' W 073°45'8 8.0
2016-Dec-08 03:33N 40°29' W 073°55'1212.3
2016-Dec-08 02:33N 40°39' W 074°05'3 3.4
2016-Dec-08 01:33N 40°41' W 074°08'1 0.8
2016-Dec-08 00:33N 40°42' W 074°09'0 0.0
2016-Dec-07 23:29N 40°42' W 074°09'0 0.0
2016-Dec-07 22:32N 40°42' W 074°09'0 0.0
2016-Dec-07 21:32N 40°42' W 074°09'0 0.0
2016-Dec-07 20:32N 40°42' W 074°09'0 0.0
2016-Dec-07 19:32N 40°42' W 074°09'0 0.0
2016-Dec-07 18:32N 40°42' W 074°09'0 0.0
2016-Dec-07 17:32N 40°42' W 074°09'0 0.0
2016-Dec-07 16:32N 40°42' W 074°09'0 0.0
2016-Dec-07 15:32N 40°42' W 074°09'0 0.0
2016-Dec-07 14:32N 40°42' W 074°09'0 0.0
2016-Dec-07 13:32N 40°42' W 074°09'0 0.0
2016-Dec-07 12:29N 40°42' W 074°09'0 0.0
2016-Dec-07 11:32N 40°42' W 074°09'0 0.0
2016-Dec-07 10:32N 40°42' W 074°09'0 0.0
2016-Dec-07 09:32N 40°42' W 074°09'0 0.0
2016-Dec-07 08:32N 40°42' W 074°09'0 0.0
2016-Dec-07 07:32N 40°42' W 074°09'0 0.0
2016-Dec-07 06:32N 40°42' W 074°09'0 0.0
2016-Dec-07 05:32N 40°42' W 074°09'0 0.0
2016-Dec-07 04:32N 40°42' W 074°09'0 0.0
2016-Dec-07 03:32N 40°42' W 074°09'0 0.0
2016-Dec-07 02:32N 40°42' W 074°09'0 0.0
2016-Dec-07 01:32N 40°42' W 074°09'2 2.3
2016-Dec-07 00:33N 40°40' W 074°09'5 5.0
2016-Dec-06 23:33N 40°37' W 074°03'1010.0
2016-Dec-06 22:33N 40°29' W 073°55'8 7.9
2016-Dec-06 21:33N 40°24' W 073°47'8 8.1
2016-Dec-06 20:32N 40°16' W 073°46'2613.2
2016-Dec-06 18:34N 39°50' W 073°43'1514.9
2016-Dec-06 17:33N 39°35' W 073°41'1615.6
2016-Dec-06 16:32N 39°20' W 073°48'3316.1
2016-Dec-06 14:29N 38°50' W 074°07'3416.1
2016-Dec-06 12:20N 38°20' W 074°27'11014.0
2016-Dec-06 04:29N 36°50' W 075°48'8 8.6
2016-Dec-06 03:33N 36°54' W 075°55'8 8.2
2016-Dec-06 02:33N 37°01' W 076°02'5516.2
2016-Dec-05 23:10N 37°55' W 076°09'1317.2
2016-Dec-05 22:24N 38°08' W 076°14'3917.2
2016-Dec-05 20:09N 38°46' W 076°26'1118.1
2016-Dec-05 19:33N 38°56' W 076°23'1414.0
2016-Dec-05 18:33N 39°10' W 076°26'9 8.6
2016-Dec-05 17:33N 39°15' W 076°35'0 0.0
2016-Dec-05 16:34N 39°15' W 076°35'0 0.0
2016-Dec-05 15:34N 39°15' W 076°35'0 0.0
2016-Dec-05 14:34N 39°15' W 076°35'0 0.0
2016-Dec-05 13:33N 39°15' W 076°35'0 0.0
2016-Dec-05 12:34N 39°15' W 076°35'0 0.0
2016-Dec-05 11:33N 39°15' W 076°35'0 0.0
2016-Dec-05 10:34N 39°15' W 076°35'0 0.0
2016-Dec-05 09:34N 39°15' W 076°35'0 0.0
2016-Dec-05 08:34N 39°15' W 076°35'0 0.0
2016-Dec-05 07:34N 39°15' W 076°35'0 0.0
2016-Dec-05 06:34N 39°15' W 076°35'0 0.0
2016-Dec-05 05:34N 39°15' W 076°35'0 0.0
2016-Dec-05 04:33N 39°15' W 076°35'0 0.0
2016-Dec-05 03:34N 39°15' W 076°35'0 0.0
2016-Dec-05 02:33N 39°15' W 076°35'0 0.0
2016-Dec-05 01:34N 39°15' W 076°35'1 0.9
2016-Dec-05 00:34N 39°15' W 076°34'8 8.5
2016-Dec-04 23:34N 39°09' W 076°25'1514.6
2016-Dec-04 22:33N 38°55' W 076°24'5517.9
2016-Dec-04 19:30N 38°01' W 076°12'5216.5
2016-Dec-04 16:21N 37°09' W 076°09'1417.1
2016-Dec-04 15:33N 36°57' W 075°59'9 9.1
2016-Dec-04 14:33N 36°52' W 075°50'  
2016-Nov-30 23:18N 26°19' W 079°28'1216.4
2016-Nov-30 22:33N 26°07' W 079°28'1616.3
2016-Nov-30 21:33N 25°51' W 079°28'1716.1
2016-Nov-30 20:31N 25°34' W 079°29'  
Track history (hours):
 
Tides and Currents Weather Stations Pressure Air Temp Water Temp Dewpoint Dewpoint Depression Visibility Wind Speed Wind Dir Waves Ship Positions

HUAL Seoul

Last reported at 2016-Dec-08 05:16 UTC. Time now 2016-Dec-09 05:54 UTC.
Position N 40°25' W 073°37'.

Type: Cargo ship. MMSI: 257496000.

Date/timePositionNaut miles runAvg speedWind from/ knotsBaromVisibWave heightAir tempDewpointWater temp
2016-Dec-08 05:16N 40°25' W 073°37'6 8.8
2016-Dec-08 04:33N 40°26' W 073°45'8 8.0
2016-Dec-08 03:33N 40°29' W 073°55'1212.3
2016-Dec-08 02:33N 40°39' W 074°05'3 3.4
2016-Dec-08 01:33N 40°41' W 074°08'1 0.8
2016-Dec-08 00:33N 40°42' W 074°09'0 0.0
2016-Dec-07 23:29N 40°42' W 074°09'0 0.0
2016-Dec-07 22:32N 40°42' W 074°09'0 0.0
2016-Dec-07 21:32N 40°42' W 074°09'0 0.0
2016-Dec-07 20:32N 40°42' W 074°09'0 0.0
2016-Dec-07 19:32N 40°42' W 074°09'0 0.0
2016-Dec-07 18:32N 40°42' W 074°09'0 0.0
2016-Dec-07 17:32N 40°42' W 074°09'0 0.0
2016-Dec-07 16:32N 40°42' W 074°09'0 0.0
2016-Dec-07 15:32N 40°42' W 074°09'0 0.0
2016-Dec-07 14:32N 40°42' W 074°09'0 0.0
2016-Dec-07 13:32N 40°42' W 074°09'0 0.0
2016-Dec-07 12:29N 40°42' W 074°09'0 0.0
2016-Dec-07 11:32N 40°42' W 074°09'0 0.0
2016-Dec-07 10:32N 40°42' W 074°09'0 0.0
2016-Dec-07 09:32N 40°42' W 074°09'0 0.0
2016-Dec-07 08:32N 40°42' W 074°09'0 0.0
2016-Dec-07 07:32N 40°42' W 074°09'0 0.0
2016-Dec-07 06:32N 40°42' W 074°09'0 0.0
2016-Dec-07 05:32N 40°42' W 074°09'0 0.0
2016-Dec-07 04:32N 40°42' W 074°09'0 0.0
2016-Dec-07 03:32N 40°42' W 074°09'0 0.0
2016-Dec-07 02:32N 40°42' W 074°09'0 0.0
2016-Dec-07 01:32N 40°42' W 074°09'2 2.3
2016-Dec-07 00:33N 40°40' W 074°09'5 5.0
2016-Dec-06 23:33N 40°37' W 074°03'1010.0
2016-Dec-06 22:33N 40°29' W 073°55'8 7.9
2016-Dec-06 21:33N 40°24' W 073°47'8 8.1
2016-Dec-06 20:32N 40°16' W 073°46'2613.2
2016-Dec-06 18:34N 39°50' W 073°43'1514.9
2016-Dec-06 17:33N 39°35' W 073°41'1615.6
2016-Dec-06 16:32N 39°20' W 073°48'3316.1
2016-Dec-06 14:29N 38°50' W 074°07'3416.1
2016-Dec-06 12:20N 38°20' W 074°27'11014.0
2016-Dec-06 04:29N 36°50' W 075°48'8 8.6
2016-Dec-06 03:33N 36°54' W 075°55'8 8.2
2016-Dec-06 02:33N 37°01' W 076°02'5516.2
2016-Dec-05 23:10N 37°55' W 076°09'1317.2
2016-Dec-05 22:24N 38°08' W 076°14'3917.2
2016-Dec-05 20:09N 38°46' W 076°26'1118.1
2016-Dec-05 19:33N 38°56' W 076°23'1414.0
2016-Dec-05 18:33N 39°10' W 076°26'9 8.6
2016-Dec-05 17:33N 39°15' W 076°35'0 0.0
2016-Dec-05 16:34N 39°15' W 076°35'0 0.0
2016-Dec-05 15:34N 39°15' W 076°35'0 0.0
2016-Dec-05 14:34N 39°15' W 076°35'0 0.0
2016-Dec-05 13:33N 39°15' W 076°35'0 0.0
2016-Dec-05 12:34N 39°15' W 076°35'0 0.0
2016-Dec-05 11:33N 39°15' W 076°35'0 0.0
2016-Dec-05 10:34N 39°15' W 076°35'0 0.0
2016-Dec-05 09:34N 39°15' W 076°35'0 0.0
2016-Dec-05 08:34N 39°15' W 076°35'0 0.0
2016-Dec-05 07:34N 39°15' W 076°35'0 0.0
2016-Dec-05 06:34N 39°15' W 076°35'0 0.0
2016-Dec-05 05:34N 39°15' W 076°35'0 0.0
2016-Dec-05 04:33N 39°15' W 076°35'0 0.0
2016-Dec-05 03:34N 39°15' W 076°35'0 0.0
2016-Dec-05 02:33N 39°15' W 076°35'0 0.0
2016-Dec-05 01:34N 39°15' W 076°35'1 0.9
2016-Dec-05 00:34N 39°15' W 076°34'8 8.5
2016-Dec-04 23:34N 39°09' W 076°25'1514.6
2016-Dec-04 22:33N 38°55' W 076°24'5517.9
2016-Dec-04 19:30N 38°01' W 076°12'5216.5
2016-Dec-04 16:21N 37°09' W 076°09'1417.1
2016-Dec-04 15:33N 36°57' W 075°59'9 9.1
2016-Dec-04 14:33N 36°52' W 075°50'  
2016-Nov-30 23:18N 26°19' W 079°28'1216.4
2016-Nov-30 22:33N 26°07' W 079°28'1616.3
2016-Nov-30 21:33N 25°51' W 079°28'1716.1
2016-Nov-30 20:31N 25°34' W 079°29'  

Dump ship's entire track history